MMMD/MID METAR and TAF weather

Enter ICAO airport designator
Station Type Date Time Source
MMMD METAR 2020/10/20 17:50 UTC NOAA

MMMD 201750Z 33008KT 6SM BKN015TCU 31/24 A2978 RMK SLP096 56019 980 8/200


Station Type Date Time Source
MMMD Decoded METAR 2020/10/20 17:50 UTC NOAA

Merida / lic Manuel Crecencio, Mexico (MMMD) 20-56N 089-39W 11M
Oct 20, 2020 - 01:50 PM EDT / 2020.10.20 1750 UTC
Wind: from the NNW (330 degrees) at 9 MPH (8 KT):0
Visibility: 6 mile(s):0
Sky conditions: mostly cloudy
Weather: Towering cumulus clouds observed
Temperature: 87 F (31 C)
Heat index: 95.7 F (35.4 C):1
Dew Point: 75 F (24 C)
Relative Humidity: 66%
Pressure (altimeter): 29.78 in. Hg (1008 hPa)
Pressure tendency: 0.06 inches (1.9 hPa) lower than three hours ago
ob: MMMD 201750Z 33008KT 6SM BKN015TCU 31/24 A2978 RMK SLP096 56019 980 8/200
cycle: 18

Station Type Date Time Source
MMMD TAF 2020/10/20 18:45 UTC NOAA

TAF MMMD 201644Z 2018/2124 35012KT 6SM HZ BKN015 TX32/2019Z TN24/2110Z
TEMPO 2020/2024 4SM TSRA BKN015CB
FM210300 34008KT 6SM HZ BKN015
BECMG 2109/2110 13005KT
TEMPO 2110/2114 3SM BR HZ BKN005 BKN012
FM211500 34008KT 6SM HZ BKN015
FM211800 01010KT P6SM SCT015 BKN030
TEMPO 2120/2124 3SM TSRA BKN015CB

Example: see airport list